sensor_id;sensor_type;location;lat;lon;timestamp;pressure;altitude;pressure_sealevel;temperature;humidity
34696;BME280;20918;51.138;17.370;2023-02-18T00:00:59;99830.34;;;7.32;65.36
34696;BME280;20918;51.138;17.370;2023-02-18T00:04:01;99834.17;;;7.30;65.61
34696;BME280;20918;51.138;17.370;2023-02-18T00:07:01;99849.63;;;7.27;66.49
34696;BME280;20918;51.138;17.370;2023-02-18T00:10:03;99848.88;;;7.16;66.90
34696;BME280;20918;51.138;17.370;2023-02-18T00:13:05;99855.09;;;7.09;68.15
34696;BME280;20918;51.138;17.370;2023-02-18T00:16:08;99857.46;;;7.05;68.94
34696;BME280;20918;51.138;17.370;2023-02-18T00:19:15;99858.95;;;7.04;69.84
34696;BME280;20918;51.138;17.370;2023-02-18T00:22:19;99862.25;;;6.97;70.77
34696;BME280;20918;51.138;17.370;2023-02-18T00:25:19;99864.84;;;6.97;71.43
34696;BME280;20918;51.138;17.370;2023-02-18T00:28:20;99865.48;;;6.94;71.68
34696;BME280;20918;51.138;17.370;2023-02-18T00:31:21;99866.66;;;6.93;71.74
34696;BME280;20918;51.138;17.370;2023-02-18T00:34:22;99866.98;;;6.93;71.52
34696;BME280;20918;51.138;17.370;2023-02-18T00:37:23;99880.56;;;6.99;71.24
34696;BME280;20918;51.138;17.370;2023-02-18T00:40:24;99881.20;;;6.97;69.65
34696;BME280;20918;51.138;17.370;2023-02-18T00:43:24;99875.67;;;7.00;68.55
34696;BME280;20918;51.138;17.370;2023-02-18T00:46:25;99881.20;;;7.04;67.48
34696;BME280;20918;51.138;17.370;2023-02-18T00:49:26;99887.40;;;7.04;67.19
34696;BME280;20918;51.138;17.370;2023-02-18T00:52:27;99888.55;;;7.00;67.31
34696;BME280;20918;51.138;17.370;2023-02-18T00:55:28;99895.70;;;6.91;67.32
34696;BME280;20918;51.138;17.370;2023-02-18T00:58:28;99884.41;;;6.83;67.36
34696;BME280;20918;51.138;17.370;2023-02-18T01:01:29;99879.02;;;6.77;66.89
34696;BME280;20918;51.138;17.370;2023-02-18T01:04:31;99894.14;;;6.74;66.67
34696;BME280;20918;51.138;17.370;2023-02-18T01:07:32;99899.08;;;6.72;66.99
34696;BME280;20918;51.138;17.370;2023-02-18T01:10:33;99900.16;;;6.70;66.75
34696;BME280;20918;51.138;17.370;2023-02-18T01:13:34;99902.65;;;6.66;66.27
34696;BME280;20918;51.138;17.370;2023-02-18T01:16:35;99896.55;;;6.64;65.24
34696;BME280;20918;51.138;17.370;2023-02-18T01:19:35;99894.16;;;6.67;64.31
34696;BME280;20918;51.138;17.370;2023-02-18T01:22:36;99899.37;;;6.67;64.36
34696;BME280;20918;51.138;17.370;2023-02-18T01:25:40;99904.36;;;6.63;64.49
34696;BME280;20918;51.138;17.370;2023-02-18T01:28:42;99907.80;;;6.57;64.40
34696;BME280;20918;51.138;17.370;2023-02-18T01:31:42;99915.41;;;6.50;65.00
34696;BME280;20918;51.138;17.370;2023-02-18T01:34:43;99921.63;;;6.44;65.50
34696;BME280;20918;51.138;17.370;2023-02-18T01:37:44;99918.21;;;6.36;65.51
34696;BME280;20918;51.138;17.370;2023-02-18T01:40:48;99906.67;;;6.30;65.02
34696;BME280;20918;51.138;17.370;2023-02-18T01:44:10;99913.67;;;6.30;64.73
34696;BME280;20918;51.138;17.370;2023-02-18T01:47:14;99913.55;;;6.29;64.84
34696;BME280;20918;51.138;17.370;2023-02-18T01:50:14;99914.31;;;6.25;64.83
34696;BME280;20918;51.138;17.370;2023-02-18T01:53:19;99918.46;;;6.20;65.02
34696;BME280;20918;51.138;17.370;2023-02-18T01:56:31;99924.36;;;6.13;65.05
34696;BME280;20918;51.138;17.370;2023-02-18T01:59:47;99921.90;;;6.05;65.45
34696;BME280;20918;51.138;17.370;2023-02-18T02:02:51;99921.04;;;5.98;65.43
34696;BME280;20918;51.138;17.370;2023-02-18T02:05:52;99922.48;;;5.94;65.65
34696;BME280;20918;51.138;17.370;2023-02-18T02:08:55;99920.17;;;5.90;65.90
34696;BME280;20918;51.138;17.370;2023-02-18T02:35:47;99933.13;;;5.63;65.36
34696;BME280;20918;51.138;17.370;2023-02-18T02:39:29;99928.53;;;5.67;64.62
34696;BME280;20918;51.138;17.370;2023-02-18T02:46:02;99923.66;;;5.69;64.31
34696;BME280;20918;51.138;17.370;2023-02-18T02:52:32;99929.34;;;5.62;63.95
34696;BME280;20918;51.138;17.370;2023-02-18T02:55:34;99924.16;;;5.59;63.44
34696;BME280;20918;51.138;17.370;2023-02-18T02:58:36;99931.69;;;5.60;62.77
34696;BME280;20918;51.138;17.370;2023-02-18T03:12:48;99947.38;;;5.46;63.29
34696;BME280;20918;51.138;17.370;2023-02-18T03:19:13;99955.05;;;5.22;63.72
34696;BME280;20918;51.138;17.370;2023-02-18T03:22:20;99952.14;;;5.15;64.23
34696;BME280;20918;51.138;17.370;2023-02-18T03:25:23;99952.58;;;5.14;64.15
34696;BME280;20918;51.138;17.370;2023-02-18T03:28:26;99951.45;;;5.17;64.23
34696;BME280;20918;51.138;17.370;2023-02-18T03:31:33;99953.89;;;5.20;64.09
34696;BME280;20918;51.138;17.370;2023-02-18T03:34:44;99955.01;;;5.19;63.76
34696;BME280;20918;51.138;17.370;2023-02-18T03:38:12;99954.09;;;5.17;63.84
34696;BME280;20918;51.138;17.370;2023-02-18T03:41:16;99953.52;;;5.14;64.06
34696;BME280;20918;51.138;17.370;2023-02-18T03:44:16;99964.86;;;5.11;64.12
34696;BME280;20918;51.138;17.370;2023-02-18T03:47:17;99963.59;;;5.03;64.30
34696;BME280;20918;51.138;17.370;2023-02-18T03:50:18;99962.73;;;4.97;64.25
34696;BME280;20918;51.138;17.370;2023-02-18T03:53:18;99975.55;;;4.97;64.14
34696;BME280;20918;51.138;17.370;2023-02-18T03:56:19;99972.36;;;4.97;64.27
34696;BME280;20918;51.138;17.370;2023-02-18T03:59:20;99978.34;;;4.95;64.16
34696;BME280;20918;51.138;17.370;2023-02-18T04:02:20;99981.08;;;4.92;64.38
34696;BME280;20918;51.138;17.370;2023-02-18T04:05:21;99986.09;;;4.88;64.17
34696;BME280;20918;51.138;17.370;2023-02-18T04:08:21;99989.10;;;4.88;63.95
34696;BME280;20918;51.138;17.370;2023-02-18T04:11:22;99983.05;;;4.87;63.59
34696;BME280;20918;51.138;17.370;2023-02-18T04:14:23;99992.98;;;4.87;64.25
34696;BME280;20918;51.138;17.370;2023-02-18T04:17:23;99991.23;;;4.85;63.95
34696;BME280;20918;51.138;17.370;2023-02-18T04:20:26;99992.98;;;4.87;63.77
34696;BME280;20918;51.138;17.370;2023-02-18T04:23:27;99996.02;;;4.87;63.84
34696;BME280;20918;51.138;17.370;2023-02-18T04:26:28;100004.98;;;4.82;63.99
34696;BME280;20918;51.138;17.370;2023-02-18T04:29:29;99999.56;;;4.79;63.54
34696;BME280;20918;51.138;17.370;2023-02-18T04:32:29;100007.06;;;4.79;63.82
34696;BME280;20918;51.138;17.370;2023-02-18T04:35:30;100012.73;;;4.76;63.94
34696;BME280;20918;51.138;17.370;2023-02-18T04:38:30;100013.35;;;4.73;63.87
34696;BME280;20918;51.138;17.370;2023-02-18T04:41:31;100019.02;;;4.68;64.08
34696;BME280;20918;51.138;17.370;2023-02-18T04:44:31;100013.39;;;4.64;63.72
34696;BME280;20918;51.138;17.370;2023-02-18T04:47:32;100010.17;;;4.67;64.18
34696;BME280;20918;51.138;17.370;2023-02-18T04:50:33;100003.92;;;4.66;63.94
34696;BME280;20918;51.138;17.370;2023-02-18T04:53:34;100004.06;;;4.67;63.80
34696;BME280;20918;51.138;17.370;2023-02-18T04:56:34;100002.54;;;4.66;64.08
34696;BME280;20918;51.138;17.370;2023-02-18T04:59:35;99998.39;;;4.63;64.14
34696;BME280;20918;51.138;17.370;2023-02-18T05:02:36;99990.23;;;4.63;64.42
34696;BME280;20918;51.138;17.370;2023-02-18T05:05:36;99987.48;;;4.64;64.13
34696;BME280;20918;51.138;17.370;2023-02-18T05:08:37;99984.17;;;4.66;64.08
34696;BME280;20918;51.138;17.370;2023-02-18T05:11:37;99987.50;;;4.66;64.20
34696;BME280;20918;51.138;17.370;2023-02-18T05:14:38;99994.91;;;4.65;63.90
34696;BME280;20918;51.138;17.370;2023-02-18T05:17:39;99993.58;;;4.63;63.91
34696;BME280;20918;51.138;17.370;2023-02-18T05:20:39;99988.40;;;4.63;63.92
34696;BME280;20918;51.138;17.370;2023-02-18T05:23:40;99992.39;;;4.62;64.05
34696;BME280;20918;51.138;17.370;2023-02-18T05:26:40;99988.55;;;4.60;64.04
34696;BME280;20918;51.138;17.370;2023-02-18T05:29:41;99998.17;;;4.64;64.09
34696;BME280;20918;51.138;17.370;2023-02-18T05:32:41;100002.97;;;4.65;64.13
34696;BME280;20918;51.138;17.370;2023-02-18T05:35:42;100003.33;;;4.65;63.94
34696;BME280;20918;51.138;17.370;2023-02-18T05:38:43;100008.05;;;4.65;64.03
34696;BME280;20918;51.138;17.370;2023-02-18T05:41:43;100018.90;;;4.66;64.25
34696;BME280;20918;51.138;17.370;2023-02-18T05:44:44;100003.57;;;4.66;63.86
34696;BME280;20918;51.138;17.370;2023-02-18T05:47:44;100003.16;;;4.71;64.10
34696;BME280;20918;51.138;17.370;2023-02-18T05:50:45;100011.64;;;4.76;64.03
34696;BME280;20918;51.138;17.370;2023-02-18T05:53:45;100018.50;;;4.80;63.82
34696;BME280;20918;51.138;17.370;2023-02-18T05:56:46;100019.45;;;4.87;63.53
34696;BME280;20918;51.138;17.370;2023-02-18T05:59:47;100015.77;;;4.93;63.96
34696;BME280;20918;51.138;17.370;2023-02-18T06:02:47;100021.88;;;4.96;63.59
34696;BME280;20918;51.138;17.370;2023-02-18T06:05:49;100026.15;;;4.99;63.30
34696;BME280;20918;51.138;17.370;2023-02-18T06:08:52;100038.43;;;5.03;63.79
34696;BME280;20918;51.138;17.370;2023-02-18T06:11:53;100045.95;;;5.03;63.58
34696;BME280;20918;51.138;17.370;2023-02-18T06:14:53;100041.00;;;5.04;63.68
34696;BME280;20918;51.138;17.370;2023-02-18T06:17:54;100038.25;;;5.07;63.70
34696;BME280;20918;51.138;17.370;2023-02-18T06:20:55;100033.95;;;5.12;63.42
34696;BME280;20918;51.138;17.370;2023-02-18T06:23:55;100042.30;;;5.17;63.61
34696;BME280;20918;51.138;17.370;2023-02-18T06:26:56;100042.02;;;5.19;63.44
34696;BME280;20918;51.138;17.370;2023-02-18T06:29:59;100047.08;;;5.23;63.14
34696;BME280;20918;51.138;17.370;2023-02-18T06:32:59;100048.38;;;5.26;63.16
34696;BME280;20918;51.138;17.370;2023-02-18T06:36:06;100048.73;;;5.28;63.47
34696;BME280;20918;51.138;17.370;2023-02-18T06:39:08;100049.91;;;5.28;63.13
34696;BME280;20918;51.138;17.370;2023-02-18T06:42:08;100049.25;;;5.32;63.23
34696;BME280;20918;51.138;17.370;2023-02-18T06:45:09;100051.90;;;5.34;63.14
34696;BME280;20918;51.138;17.370;2023-02-18T06:48:10;100052.56;;;5.40;62.82
34696;BME280;20918;51.138;17.370;2023-02-18T06:51:12;100063.86;;;5.46;62.87
34696;BME280;20918;51.138;17.370;2023-02-18T06:54:12;100063.34;;;5.47;63.02
34696;BME280;20918;51.138;17.370;2023-02-18T06:57:13;100065.45;;;5.49;62.71
34696;BME280;20918;51.138;17.370;2023-02-18T07:00:14;100071.04;;;5.52;63.00
34696;BME280;20918;51.138;17.370;2023-02-18T07:03:14;100072.29;;;5.51;62.90
34696;BME280;20918;51.138;17.370;2023-02-18T07:06:15;100074.44;;;5.55;62.72
34696;BME280;20918;51.138;17.370;2023-02-18T07:09:16;100078.71;;;5.58;62.78
34696;BME280;20918;51.138;17.370;2023-02-18T07:12:16;100073.45;;;5.60;62.50
34696;BME280;20918;51.138;17.370;2023-02-18T07:15:17;100078.91;;;5.64;62.51
34696;BME280;20918;51.138;17.370;2023-02-18T07:18:20;100077.62;;;5.67;62.40
34696;BME280;20918;51.138;17.370;2023-02-18T07:21:21;100080.73;;;5.69;62.62
34696;BME280;20918;51.138;17.370;2023-02-18T07:24:22;100081.00;;;5.72;62.10
34696;BME280;20918;51.138;17.370;2023-02-18T07:27:23;100078.84;;;5.74;61.97
34696;BME280;20918;51.138;17.370;2023-02-18T07:30:24;100073.86;;;5.75;62.04
34696;BME280;20918;51.138;17.370;2023-02-18T07:33:24;100072.63;;;5.77;61.69
34696;BME280;20918;51.138;17.370;2023-02-18T07:36:25;100071.56;;;5.79;61.63
34696;BME280;20918;51.138;17.370;2023-02-18T07:39:25;100078.11;;;5.80;61.56
34696;BME280;20918;51.138;17.370;2023-02-18T07:42:26;100074.23;;;5.81;61.61
34696;BME280;20918;51.138;17.370;2023-02-18T07:45:27;100075.67;;;5.82;61.53
34696;BME280;20918;51.138;17.370;2023-02-18T07:48:27;100075.84;;;5.84;61.21
34696;BME280;20918;51.138;17.370;2023-02-18T07:51:30;100079.58;;;5.88;61.71
34696;BME280;20918;51.138;17.370;2023-02-18T07:54:31;100075.42;;;5.91;61.60
34696;BME280;20918;51.138;17.370;2023-02-18T07:57:32;100071.24;;;5.95;61.57
34696;BME280;20918;51.138;17.370;2023-02-18T08:00:36;100069.45;;;5.99;61.45
34696;BME280;20918;51.138;17.370;2023-02-18T08:03:36;100073.94;;;6.04;61.15
34696;BME280;20918;51.138;17.370;2023-02-18T08:06:45;100070.70;;;6.11;61.23
34696;BME280;20918;51.138;17.370;2023-02-18T08:09:46;100060.35;;;6.16;61.26
34696;BME280;20918;51.138;17.370;2023-02-18T08:12:48;100065.23;;;6.21;61.36
34696;BME280;20918;51.138;17.370;2023-02-18T08:15:49;100063.00;;;6.25;61.34
34696;BME280;20918;51.138;17.370;2023-02-18T08:18:53;100061.23;;;6.32;60.85
34696;BME280;20918;51.138;17.370;2023-02-18T08:21:53;100058.99;;;6.39;60.67
34696;BME280;20918;51.138;17.370;2023-02-18T08:24:54;100055.52;;;6.44;60.30
34696;BME280;20918;51.138;17.370;2023-02-18T08:27:55;100059.48;;;6.47;60.41
34696;BME280;20918;51.138;17.370;2023-02-18T08:30:58;100055.13;;;6.49;60.15
34696;BME280;20918;51.138;17.370;2023-02-18T08:33:59;100058.47;;;6.50;60.64
34696;BME280;20918;51.138;17.370;2023-02-18T08:37:02;100063.96;;;6.54;59.97
34696;BME280;20918;51.138;17.370;2023-02-18T08:40:04;100057.98;;;6.59;60.25
34696;BME280;20918;51.138;17.370;2023-02-18T08:43:05;100052.83;;;6.65;60.13
34696;BME280;20918;51.138;17.370;2023-02-18T08:46:06;100055.87;;;6.70;60.26
34696;BME280;20918;51.138;17.370;2023-02-18T08:49:06;100060.35;;;6.75;60.21
34696;BME280;20918;51.138;17.370;2023-02-18T08:52:07;100047.39;;;6.79;59.86
34696;BME280;20918;51.138;17.370;2023-02-18T08:55:08;100047.60;;;6.80;59.98
34696;BME280;20918;51.138;17.370;2023-02-18T08:58:09;100047.80;;;6.80;59.97
34696;BME280;20918;51.138;17.370;2023-02-18T09:01:11;100047.35;;;6.79;59.69
34696;BME280;20918;51.138;17.370;2023-02-18T09:04:15;100049.73;;;6.79;59.93
34696;BME280;20918;51.138;17.370;2023-02-18T09:07:15;100050.24;;;6.77;59.60
34696;BME280;20918;51.138;17.370;2023-02-18T09:10:16;100047.39;;;6.75;59.66
34696;BME280;20918;51.138;17.370;2023-02-18T09:13:17;100053.86;;;6.75;59.74
34696;BME280;20918;51.138;17.370;2023-02-18T09:16:17;100041.95;;;6.77;60.00
34696;BME280;20918;51.138;17.370;2023-02-18T09:19:18;100053.27;;;6.76;60.39
34696;BME280;20918;51.138;17.370;2023-02-18T09:22:19;100054.05;;;6.77;60.78
34696;BME280;20918;51.138;17.370;2023-02-18T09:25:20;100050.94;;;6.81;60.97
34696;BME280;20918;51.138;17.370;2023-02-18T09:28:21;100054.77;;;6.85;61.03
34696;BME280;20918;51.138;17.370;2023-02-18T09:31:24;100061.55;;;6.85;61.02
34696;BME280;20918;51.138;17.370;2023-02-18T09:34:24;100059.80;;;6.85;60.85
34696;BME280;20918;51.138;17.370;2023-02-18T09:37:25;100069.40;;;6.86;61.07
34696;BME280;20918;51.138;17.370;2023-02-18T09:40:29;100062.41;;;6.86;61.16
34696;BME280;20918;51.138;17.370;2023-02-18T09:43:35;100057.95;;;6.85;61.59
34696;BME280;20918;51.138;17.370;2023-02-18T09:46:42;100058.79;;;6.81;61.23
34696;BME280;20918;51.138;17.370;2023-02-18T09:49:49;100050.55;;;6.77;61.34
34696;BME280;20918;51.138;17.370;2023-02-18T09:52:52;100046.41;;;6.70;61.68
34696;BME280;20918;51.138;17.370;2023-02-18T09:55:55;100053.23;;;6.63;62.21
34696;BME280;20918;51.138;17.370;2023-02-18T09:58:57;100055.05;;;6.57;62.82
34696;BME280;20918;51.138;17.370;2023-02-18T10:02:00;100053.71;;;6.51;63.46
34696;BME280;20918;51.138;17.370;2023-02-18T10:05:01;100050.80;;;6.44;64.03
34696;BME280;20918;51.138;17.370;2023-02-18T10:08:06;100041.90;;;6.41;64.34
34696;BME280;20918;51.138;17.370;2023-02-18T10:11:16;100052.34;;;6.37;64.79
34696;BME280;20918;51.138;17.370;2023-02-18T10:14:17;100053.88;;;6.32;65.30
34696;BME280;20918;51.138;17.370;2023-02-18T10:17:19;100055.39;;;6.24;65.74
34696;BME280;20918;51.138;17.370;2023-02-18T10:20:23;100050.76;;;6.18;66.24
34696;BME280;20918;51.138;17.370;2023-02-18T10:23:26;100047.70;;;6.13;66.76
34696;BME280;20918;51.138;17.370;2023-02-18T10:26:30;100049.04;;;6.10;67.16
34696;BME280;20918;51.138;17.370;2023-02-18T10:29:34;100044.35;;;6.07;67.87
34696;BME280;20918;51.138;17.370;2023-02-18T10:32:37;100039.17;;;6.02;68.14
34696;BME280;20918;51.138;17.370;2023-02-18T10:35:51;100035.60;;;5.95;68.70
34696;BME280;20918;51.138;17.370;2023-02-18T10:42:18;100027.55;;;5.89;69.15
34696;BME280;20918;51.138;17.370;2023-02-18T10:51:50;100015.41;;;5.85;70.11
34696;BME280;20918;51.138;17.370;2023-02-18T11:01:23;99995.88;;;5.77;70.65
34696;BME280;20918;51.138;17.370;2023-02-18T11:04:36;99987.52;;;5.77;71.06
34696;BME280;20918;51.138;17.370;2023-02-18T11:07:38;99980.15;;;5.73;71.70
34696;BME280;20918;51.138;17.370;2023-02-18T11:10:40;99981.45;;;5.66;71.85
34696;BME280;20918;51.138;17.370;2023-02-18T11:13:41;99977.35;;;5.57;72.26
34696;BME280;20918;51.138;17.370;2023-02-18T11:16:43;99970.69;;;5.54;72.90
34696;BME280;20918;51.138;17.370;2023-02-18T11:20:00;99964.11;;;5.52;73.37
34696;BME280;20918;51.138;17.370;2023-02-18T11:26:06;99951.42;;;5.53;73.25
34696;BME280;20918;51.138;17.370;2023-02-18T11:29:20;99951.02;;;5.58;73.67
34696;BME280;20918;51.138;17.370;2023-02-18T11:32:26;99941.98;;;5.58;73.92
34696;BME280;20918;51.138;17.370;2023-02-18T11:35:29;99937.30;;;5.58;74.17
34696;BME280;20918;51.138;17.370;2023-02-18T11:38:36;99922.17;;;5.58;74.03
34696;BME280;20918;51.138;17.370;2023-02-18T11:41:39;99911.83;;;5.60;74.58
34696;BME280;20918;51.138;17.370;2023-02-18T11:44:47;99906.16;;;5.61;74.44
34696;BME280;20918;51.138;17.370;2023-02-18T11:48:00;99891.46;;;5.64;74.71
34696;BME280;20918;51.138;17.370;2023-02-18T11:51:02;99886.50;;;5.69;74.78
34696;BME280;20918;51.138;17.370;2023-02-18T11:54:20;99880.86;;;5.72;75.06
34696;BME280;20918;51.138;17.370;2023-02-18T11:57:21;99867.29;;;5.75;75.11
34696;BME280;20918;51.138;17.370;2023-02-18T12:00:44;99856.41;;;5.77;75.19
34696;BME280;20918;51.138;17.370;2023-02-18T12:03:59;99853.70;;;5.78;75.31
34696;BME280;20918;51.138;17.370;2023-02-18T12:13:37;99840.63;;;5.82;75.53
34696;BME280;20918;51.138;17.370;2023-02-18T12:20:39;99810.86;;;5.76;76.39
34696;BME280;20918;51.138;17.370;2023-02-18T12:23:48;99798.25;;;5.75;76.68
34696;BME280;20918;51.138;17.370;2023-02-18T12:40:39;99777.02;;;5.74;78.67
34696;BME280;20918;51.138;17.370;2023-02-18T13:00:54;99700.41;;;5.66;80.12
34696;BME280;20918;51.138;17.370;2023-02-18T13:04:04;99688.77;;;5.68;80.62
34696;BME280;20918;51.138;17.370;2023-02-18T13:14:12;99659.52;;;5.64;80.99
34696;BME280;20918;51.138;17.370;2023-02-18T13:17:16;99644.63;;;5.61;81.51
34696;BME280;20918;51.138;17.370;2023-02-18T13:20:22;99640.95;;;5.56;81.86
34696;BME280;20918;51.138;17.370;2023-02-18T13:23:33;99635.96;;;5.49;82.22
34696;BME280;20918;51.138;17.370;2023-02-18T13:26:38;99627.67;;;5.45;82.69
34696;BME280;20918;51.138;17.370;2023-02-18T13:33:16;99601.88;;;5.38;83.30
34696;BME280;20918;51.138;17.370;2023-02-18T13:36:39;99598.30;;;5.37;83.69
34696;BME280;20918;51.138;17.370;2023-02-18T13:39:51;99585.47;;;5.38;83.39
34696;BME280;20918;51.138;17.370;2023-02-18T13:42:53;99581.80;;;5.38;83.57
34696;BME280;20918;51.138;17.370;2023-02-18T13:49:10;99553.39;;;5.30;84.66
34696;BME280;20918;51.138;17.370;2023-02-18T13:52:17;99553.42;;;5.26;85.49
34696;BME280;20918;51.138;17.370;2023-02-18T13:55:22;99551.70;;;5.24;85.29
34696;BME280;20918;51.138;17.370;2023-02-18T13:58:50;99548.81;;;5.25;85.15
34696;BME280;20918;51.138;17.370;2023-02-18T14:01:52;99545.41;;;5.26;85.65
34696;BME280;20918;51.138;17.370;2023-02-18T14:04:56;99531.11;;;5.27;85.71
34696;BME280;20918;51.138;17.370;2023-02-18T14:08:14;99523.59;;;5.28;85.87
34696;BME280;20918;51.138;17.370;2023-02-18T14:11:33;99518.86;;;5.30;86.00
34696;BME280;20918;51.138;17.370;2023-02-18T14:14:37;99501.59;;;5.31;86.99
34696;BME280;20918;51.138;17.370;2023-02-18T14:17:41;99487.71;;;5.30;87.76
34696;BME280;20918;51.138;17.370;2023-02-18T14:20:45;99467.66;;;5.28;88.25
34696;BME280;20918;51.138;17.370;2023-02-18T14:26:52;99480.95;;;5.25;87.72
34696;BME280;20918;51.138;17.370;2023-02-18T14:29:53;99462.48;;;5.26;88.43
34696;BME280;20918;51.138;17.370;2023-02-18T14:32:58;99452.96;;;5.24;88.91
34696;BME280;20918;51.138;17.370;2023-02-18T14:36:23;99463.02;;;5.24;89.06
34696;BME280;20918;51.138;17.370;2023-02-18T14:49:21;99429.48;;;5.40;89.22
34696;BME280;20918;51.138;17.370;2023-02-18T14:55:29;99418.50;;;5.52;89.59
34696;BME280;20918;51.138;17.370;2023-02-18T14:58:37;99426.96;;;5.59;89.51
34696;BME280;20918;51.138;17.370;2023-02-18T15:01:40;99421.34;;;5.64;89.68
34696;BME280;20918;51.138;17.370;2023-02-18T15:04:44;99421.34;;;5.70;90.03
34696;BME280;20918;51.138;17.370;2023-02-18T15:08:04;99411.80;;;5.74;90.09
34696;BME280;20918;51.138;17.370;2023-02-18T15:11:08;99410.39;;;5.79;90.56
34696;BME280;20918;51.138;17.370;2023-02-18T15:14:19;99410.00;;;5.83;90.46
34696;BME280;20918;51.138;17.370;2023-02-18T15:17:24;99413.08;;;5.86;90.48
34696;BME280;20918;51.138;17.370;2023-02-18T15:20:32;99418.04;;;5.89;90.82
34696;BME280;20918;51.138;17.370;2023-02-18T15:23:38;99422.14;;;5.94;91.21
34696;BME280;20918;51.138;17.370;2023-02-18T15:26:45;99417.10;;;5.98;91.34
34696;BME280;20918;51.138;17.370;2023-02-18T15:33:20;99407.23;;;6.14;92.56
34696;BME280;20918;51.138;17.370;2023-02-18T15:36:21;99403.25;;;6.21;92.62
34696;BME280;20918;51.138;17.370;2023-02-18T15:39:22;99397.04;;;6.26;93.57
34696;BME280;20918;51.138;17.370;2023-02-18T15:42:27;99386.36;;;6.35;93.93
34696;BME280;20918;51.138;17.370;2023-02-18T15:45:39;99381.05;;;6.45;94.36
34696;BME280;20918;51.138;17.370;2023-02-18T15:48:46;99374.21;;;6.57;94.74
34696;BME280;20918;51.138;17.370;2023-02-18T15:51:48;99373.05;;;6.66;94.78
34696;BME280;20918;51.138;17.370;2023-02-18T15:54:49;99362.23;;;6.81;95.78
34696;BME280;20918;51.138;17.370;2023-02-18T15:57:50;99358.44;;;6.98;96.37
34696;BME280;20918;51.138;17.370;2023-02-18T16:00:58;99353.80;;;7.16;96.19
34696;BME280;20918;51.138;17.370;2023-02-18T16:03:59;99342.15;;;7.28;96.55
34696;BME280;20918;51.138;17.370;2023-02-18T16:07:25;99343.14;;;7.42;96.89
34696;BME280;20918;51.138;17.370;2023-02-18T16:13:36;99341.41;;;7.74;97.36
34696;BME280;20918;51.138;17.370;2023-02-18T16:17:19;99334.52;;;7.87;97.87
34696;BME280;20918;51.138;17.370;2023-02-18T16:20:26;99339.77;;;8.01;98.05
34696;BME280;20918;51.138;17.370;2023-02-18T16:23:41;99341.05;;;8.07;97.34
34696;BME280;20918;51.138;17.370;2023-02-18T16:26:45;99336.67;;;8.07;96.75
34696;BME280;20918;51.138;17.370;2023-02-18T16:29:49;99329.05;;;8.13;96.60
34696;BME280;20918;51.138;17.370;2023-02-18T16:32:50;99339.02;;;8.18;96.10
34696;BME280;20918;51.138;17.370;2023-02-18T16:35:51;99338.41;;;8.22;95.55
34696;BME280;20918;51.138;17.370;2023-02-18T16:38:52;99342.68;;;8.23;95.17
34696;BME280;20918;51.138;17.370;2023-02-18T16:41:53;99335.26;;;8.25;94.84
34696;BME280;20918;51.138;17.370;2023-02-18T16:44:54;99331.29;;;8.29;94.37
34696;BME280;20918;51.138;17.370;2023-02-18T16:47:55;99333.52;;;8.33;93.91
34696;BME280;20918;51.138;17.370;2023-02-18T16:51:00;99336.89;;;8.34;93.59
34696;BME280;20918;51.138;17.370;2023-02-18T16:54:01;99339.82;;;8.35;93.18
34696;BME280;20918;51.138;17.370;2023-02-18T16:57:02;99344.64;;;8.36;92.84
34696;BME280;20918;51.138;17.370;2023-02-18T17:00:03;99337.38;;;8.39;92.39
34696;BME280;20918;51.138;17.370;2023-02-18T17:03:04;99339.66;;;8.42;92.01
34696;BME280;20918;51.138;17.370;2023-02-18T17:06:05;99340.38;;;8.46;91.66
34696;BME280;20918;51.138;17.370;2023-02-18T17:09:24;99348.21;;;8.49;90.97
34696;BME280;20918;51.138;17.370;2023-02-18T17:12:26;99352.83;;;8.54;90.47
34696;BME280;20918;51.138;17.370;2023-02-18T17:15:30;99345.34;;;8.58;89.91
34696;BME280;20918;51.138;17.370;2023-02-18T17:18:32;99360.23;;;8.62;89.63
34696;BME280;20918;51.138;17.370;2023-02-18T17:21:33;99353.66;;;8.64;89.09
34696;BME280;20918;51.138;17.370;2023-02-18T17:24:34;99355.31;;;8.66;88.88
34696;BME280;20918;51.138;17.370;2023-02-18T17:27:35;99355.63;;;8.67;88.85
34696;BME280;20918;51.138;17.370;2023-02-18T17:30:38;99365.14;;;8.65;88.55
34696;BME280;20918;51.138;17.370;2023-02-18T17:33:43;99374.50;;;8.65;88.40
34696;BME280;20918;51.138;17.370;2023-02-18T17:36:45;99368.14;;;8.67;87.93
34696;BME280;20918;51.138;17.370;2023-02-18T17:39:51;99384.58;;;8.69;87.77
34696;BME280;20918;51.138;17.370;2023-02-18T17:42:53;99386.39;;;8.72;87.41
34696;BME280;20918;51.138;17.370;2023-02-18T17:45:56;99401.42;;;8.75;87.25
34696;BME280;20918;51.138;17.370;2023-02-18T17:48:57;99396.36;;;8.76;86.86
34696;BME280;20918;51.138;17.370;2023-02-18T17:51:58;99405.64;;;8.77;86.88
34696;BME280;20918;51.138;17.370;2023-02-18T17:55:16;99408.63;;;8.75;86.69
34696;BME280;20918;51.138;17.370;2023-02-18T17:58:17;99408.05;;;8.79;86.62
34696;BME280;20918;51.138;17.370;2023-02-18T18:01:18;99418.18;;;8.81;86.58
34696;BME280;20918;51.138;17.370;2023-02-18T18:04:20;99418.70;;;8.80;86.53
34696;BME280;20918;51.138;17.370;2023-02-18T18:07:20;99430.24;;;8.77;86.66
34696;BME280;20918;51.138;17.370;2023-02-18T18:10:23;99435.05;;;8.74;86.79
34696;BME280;20918;51.138;17.370;2023-02-18T18:13:29;99441.41;;;8.70;86.93
34696;BME280;20918;51.138;17.370;2023-02-18T18:16:33;99450.62;;;8.65;87.10
34696;BME280;20918;51.138;17.370;2023-02-18T18:19:34;99458.21;;;8.61;87.52
34696;BME280;20918;51.138;17.370;2023-02-18T18:22:36;99457.04;;;8.57;87.63
34696;BME280;20918;51.138;17.370;2023-02-18T18:25:41;99468.93;;;8.55;88.09
34696;BME280;20918;51.138;17.370;2023-02-18T18:28:42;99476.71;;;8.52;88.30
34696;BME280;20918;51.138;17.370;2023-02-18T18:31:44;99479.30;;;8.50;88.42